sensor_id;sensor_type;location;lat;lon;timestamp;P1;durP1;ratioP1;P2;durP2;ratioP2
81378;SDS011;70830;42.290;-71.354;2023-12-20T00:01:38;5.35;;;5.05;;
81378;SDS011;70830;42.290;-71.354;2023-12-20T00:04:05;5.32;;;5.03;;
81378;SDS011;70830;42.290;-71.354;2023-12-20T00:06:31;5.45;;;5.15;;
81378;SDS011;70830;42.290;-71.354;2023-12-20T00:08:57;5.85;;;5.30;;
81378;SDS011;70830;42.290;-71.354;2023-12-20T00:11:23;5.63;;;5.30;;
81378;SDS011;70830;42.290;-71.354;2023-12-20T00:13:50;4.82;;;4.53;;
81378;SDS011;70830;42.290;-71.354;2023-12-20T00:16:16;2.03;;;1.92;;
81378;SDS011;70830;42.290;-71.354;2023-12-20T00:18:42;1.70;;;1.60;;
81378;SDS011;70830;42.290;-71.354;2023-12-20T00:21:08;1.17;;;0.40;;
81378;SDS011;70830;42.290;-71.354;2023-12-20T00:23:34;0.40;;;0.20;;
81378;SDS011;70830;42.290;-71.354;2023-12-20T00:26:00;1.67;;;0.60;;
81378;SDS011;70830;42.290;-71.354;2023-12-20T00:28:26;0.80;;;0.30;;
81378;SDS011;70830;42.290;-71.354;2023-12-20T00:30:52;0.73;;;0.30;;
81378;SDS011;70830;42.290;-71.354;2023-12-20T00:33:18;1.08;;;0.52;;
81378;SDS011;70830;42.290;-71.354;2023-12-20T00:35:44;3.78;;;2.00;;
81378;SDS011;70830;42.290;-71.354;2023-12-20T00:38:10;2.13;;;2.00;;
81378;SDS011;70830;42.290;-71.354;2023-12-20T00:40:36;2.33;;;2.10;;
81378;SDS011;70830;42.290;-71.354;2023-12-20T00:43:02;2.25;;;2.05;;
81378;SDS011;70830;42.290;-71.354;2023-12-20T00:45:28;2.05;;;0.25;;
81378;SDS011;70830;42.290;-71.354;2023-12-20T00:47:54;1.27;;;0.80;;
81378;SDS011;70830;42.290;-71.354;2023-12-20T00:50:20;1.05;;;0.50;;
81378;SDS011;70830;42.290;-71.354;2023-12-20T00:52:47;0.80;;;0.30;;
81378;SDS011;70830;42.290;-71.354;2023-12-20T00:55:13;0.55;;;0.30;;
81378;SDS011;70830;42.290;-71.354;2023-12-20T00:57:39;1.40;;;1.30;;
81378;SDS011;70830;42.290;-71.354;2023-12-20T01:00:06;2.38;;;1.50;;
81378;SDS011;70830;42.290;-71.354;2023-12-20T01:02:34;1.00;;;0.90;;
81378;SDS011;70830;42.290;-71.354;2023-12-20T01:05:01;0.80;;;0.60;;
81378;SDS011;70830;42.290;-71.354;2023-12-20T01:07:28;0.68;;;0.57;;
81378;SDS011;70830;42.290;-71.354;2023-12-20T01:09:54;1.00;;;0.80;;
81378;SDS011;70830;42.290;-71.354;2023-12-20T01:12:20;2.95;;;1.15;;
81378;SDS011;70830;42.290;-71.354;2023-12-20T01:14:46;1.30;;;1.20;;
81378;SDS011;70830;42.290;-71.354;2023-12-20T01:17:12;1.15;;;1.05;;
81378;SDS011;70830;42.290;-71.354;2023-12-20T01:19:38;1.90;;;1.80;;
81378;SDS011;70830;42.290;-71.354;2023-12-20T01:22:04;1.90;;;1.80;;
81378;SDS011;70830;42.290;-71.354;2023-12-20T01:24:30;1.40;;;1.30;;
81378;SDS011;70830;42.290;-71.354;2023-12-20T01:26:56;1.35;;;1.15;;
81378;SDS011;70830;42.290;-71.354;2023-12-20T01:29:22;1.92;;;1.70;;
81378;SDS011;70830;42.290;-71.354;2023-12-20T01:31:47;1.75;;;1.65;;
81378;SDS011;70830;42.290;-71.354;2023-12-20T01:34:13;2.20;;;1.58;;
81378;SDS011;70830;42.290;-71.354;2023-12-20T01:36:39;2.00;;;1.50;;
81378;SDS011;70830;42.290;-71.354;2023-12-20T01:39:05;1.90;;;1.80;;
81378;SDS011;70830;42.290;-71.354;2023-12-20T01:41:31;1.83;;;1.73;;
81378;SDS011;70830;42.290;-71.354;2023-12-20T01:43:57;1.70;;;0.93;;
81378;SDS011;70830;42.290;-71.354;2023-12-20T01:46:24;1.75;;;0.55;;
81378;SDS011;70830;42.290;-71.354;2023-12-20T01:48:51;1.58;;;1.30;;
81378;SDS011;70830;42.290;-71.354;2023-12-20T01:51:18;2.83;;;2.00;;
81378;SDS011;70830;42.290;-71.354;2023-12-20T01:53:44;2.72;;;2.53;;
81378;SDS011;70830;42.290;-71.354;2023-12-20T01:56:11;4.18;;;3.70;;
81378;SDS011;70830;42.290;-71.354;2023-12-20T01:58:39;2.85;;;2.65;;
81378;SDS011;70830;42.290;-71.354;2023-12-20T02:01:09;2.85;;;2.65;;
81378;SDS011;70830;42.290;-71.354;2023-12-20T02:03:36;1.45;;;0.80;;
81378;SDS011;70830;42.290;-71.354;2023-12-20T02:06:03;0.70;;;0.30;;
81378;SDS011;70830;42.290;-71.354;2023-12-20T02:08:30;2.33;;;0.75;;
81378;SDS011;70830;42.290;-71.354;2023-12-20T02:10:56;3.35;;;2.75;;
81378;SDS011;70830;42.290;-71.354;2023-12-20T02:13:22;0.70;;;0.30;;
81378;SDS011;70830;42.290;-71.354;2023-12-20T02:15:48;2.78;;;0.55;;
81378;SDS011;70830;42.290;-71.354;2023-12-20T02:18:14;0.68;;;0.43;;
81378;SDS011;70830;42.290;-71.354;2023-12-20T02:20:41;0.88;;;0.30;;
81378;SDS011;70830;42.290;-71.354;2023-12-20T02:23:07;0.68;;;0.40;;
81378;SDS011;70830;42.290;-71.354;2023-12-20T02:25:35;2.08;;;0.50;;
81378;SDS011;70830;42.290;-71.354;2023-12-20T02:28:01;1.92;;;0.50;;
81378;SDS011;70830;42.290;-71.354;2023-12-20T02:30:27;1.27;;;0.50;;
81378;SDS011;70830;42.290;-71.354;2023-12-20T02:32:53;1.92;;;1.80;;
81378;SDS011;70830;42.290;-71.354;2023-12-20T02:35:19;2.45;;;2.25;;
81378;SDS011;70830;42.290;-71.354;2023-12-20T02:37:45;1.95;;;1.63;;
81378;SDS011;70830;42.290;-71.354;2023-12-20T02:40:11;1.38;;;1.10;;
81378;SDS011;70830;42.290;-71.354;2023-12-20T02:42:37;1.00;;;0.40;;
81378;SDS011;70830;42.290;-71.354;2023-12-20T02:45:03;0.68;;;0.32;;
81378;SDS011;70830;42.290;-71.354;2023-12-20T02:47:29;1.67;;;0.30;;
81378;SDS011;70830;42.290;-71.354;2023-12-20T02:49:55;0.77;;;0.32;;
81378;SDS011;70830;42.290;-71.354;2023-12-20T02:52:23;0.90;;;0.38;;
81378;SDS011;70830;42.290;-71.354;2023-12-20T02:54:49;0.55;;;0.38;;
81378;SDS011;70830;42.290;-71.354;2023-12-20T02:57:15;1.05;;;0.30;;
81378;SDS011;70830;42.290;-71.354;2023-12-20T02:59:41;0.77;;;0.50;;
81378;SDS011;70830;42.290;-71.354;2023-12-20T03:02:07;0.65;;;0.30;;
81378;SDS011;70830;42.290;-71.354;2023-12-20T03:04:33;1.30;;;0.50;;
81378;SDS011;70830;42.290;-71.354;2023-12-20T03:06:59;1.02;;;0.32;;
81378;SDS011;70830;42.290;-71.354;2023-12-20T03:09:25;0.52;;;0.30;;
81378;SDS011;70830;42.290;-71.354;2023-12-20T03:11:50;1.50;;;0.40;;
81378;SDS011;70830;42.290;-71.354;2023-12-20T03:14:16;2.50;;;2.30;;
81378;SDS011;70830;42.290;-71.354;2023-12-20T03:16:46;2.00;;;1.90;;
81378;SDS011;70830;42.290;-71.354;2023-12-20T03:19:15;2.67;;;2.55;;
81378;SDS011;70830;42.290;-71.354;2023-12-20T03:21:41;2.30;;;2.10;;
81378;SDS011;70830;42.290;-71.354;2023-12-20T03:24:07;4.45;;;4.15;;
81378;SDS011;70830;42.290;-71.354;2023-12-20T03:26:33;4.90;;;4.60;;
81378;SDS011;70830;42.290;-71.354;2023-12-20T03:28:58;5.00;;;4.70;;
81378;SDS011;70830;42.290;-71.354;2023-12-20T03:31:24;5.10;;;4.80;;
81378;SDS011;70830;42.290;-71.354;2023-12-20T03:33:50;5.30;;;5.00;;
81378;SDS011;70830;42.290;-71.354;2023-12-20T03:36:19;5.50;;;5.20;;
81378;SDS011;70830;42.290;-71.354;2023-12-20T03:38:45;5.40;;;5.10;;
81378;SDS011;70830;42.290;-71.354;2023-12-20T03:41:11;7.45;;;4.95;;
81378;SDS011;70830;42.290;-71.354;2023-12-20T03:43:37;4.68;;;4.38;;
81378;SDS011;70830;42.290;-71.354;2023-12-20T03:46:03;5.10;;;4.80;;
81378;SDS011;70830;42.290;-71.354;2023-12-20T03:48:30;6.00;;;5.68;;
81378;SDS011;70830;42.290;-71.354;2023-12-20T03:50:56;5.20;;;4.90;;
81378;SDS011;70830;42.290;-71.354;2023-12-20T03:53:22;5.38;;;5.07;;
81378;SDS011;70830;42.290;-71.354;2023-12-20T03:55:48;5.43;;;5.05;;
81378;SDS011;70830;42.290;-71.354;2023-12-20T03:58:14;4.40;;;4.20;;
81378;SDS011;70830;42.290;-71.354;2023-12-20T04:00:40;5.25;;;4.90;;
81378;SDS011;70830;42.290;-71.354;2023-12-20T04:03:06;5.07;;;4.78;;
81378;SDS011;70830;42.290;-71.354;2023-12-20T04:05:32;4.57;;;4.38;;
81378;SDS011;70830;42.290;-71.354;2023-12-20T04:07:59;5.60;;;5.10;;
81378;SDS011;70830;42.290;-71.354;2023-12-20T04:10:27;4.90;;;4.60;;
81378;SDS011;70830;42.290;-71.354;2023-12-20T04:12:53;5.10;;;4.80;;
81378;SDS011;70830;42.290;-71.354;2023-12-20T04:15:20;5.20;;;4.90;;
81378;SDS011;70830;42.290;-71.354;2023-12-20T04:17:46;3.35;;;3.05;;
81378;SDS011;70830;42.290;-71.354;2023-12-20T04:20:12;2.65;;;1.38;;
81378;SDS011;70830;42.290;-71.354;2023-12-20T04:22:38;1.15;;;0.40;;
81378;SDS011;70830;42.290;-71.354;2023-12-20T04:25:04;1.23;;;0.30;;
81378;SDS011;70830;42.290;-71.354;2023-12-20T04:27:30;0.45;;;0.17;;
81378;SDS011;70830;42.290;-71.354;2023-12-20T04:29:56;0.40;;;0.30;;
81378;SDS011;70830;42.290;-71.354;2023-12-20T04:32:22;0.65;;;0.30;;
81378;SDS011;70830;42.290;-71.354;2023-12-20T04:34:48;0.32;;;0.20;;
81378;SDS011;70830;42.290;-71.354;2023-12-20T04:37:13;0.10;;;0.10;;
81378;SDS011;70830;42.290;-71.354;2023-12-20T04:39:39;1.45;;;0.40;;
81378;SDS011;70830;42.290;-71.354;2023-12-20T04:42:06;1.75;;;1.23;;
81378;SDS011;70830;42.290;-71.354;2023-12-20T04:44:32;0.60;;;0.30;;
81378;SDS011;70830;42.290;-71.354;2023-12-20T04:46:58;0.50;;;0.20;;
81378;SDS011;70830;42.290;-71.354;2023-12-20T04:49:25;1.95;;;0.40;;
81378;SDS011;70830;42.290;-71.354;2023-12-20T04:51:51;2.13;;;1.90;;
81378;SDS011;70830;42.290;-71.354;2023-12-20T04:54:17;3.33;;;2.20;;
81378;SDS011;70830;42.290;-71.354;2023-12-20T04:56:42;2.63;;;0.70;;
81378;SDS011;70830;42.290;-71.354;2023-12-20T04:59:08;1.10;;;0.40;;
81378;SDS011;70830;42.290;-71.354;2023-12-20T05:01:34;3.30;;;0.38;;
81378;SDS011;70830;42.290;-71.354;2023-12-20T05:04:00;1.35;;;0.80;;
81378;SDS011;70830;42.290;-71.354;2023-12-20T05:06:26;1.23;;;0.73;;
81378;SDS011;70830;42.290;-71.354;2023-12-20T05:08:52;0.98;;;0.40;;
81378;SDS011;70830;42.290;-71.354;2023-12-20T05:11:18;0.60;;;0.38;;
81378;SDS011;70830;42.290;-71.354;2023-12-20T05:13:43;4.10;;;3.80;;
81378;SDS011;70830;42.290;-71.354;2023-12-20T05:16:09;7.65;;;7.25;;
81378;SDS011;70830;42.290;-71.354;2023-12-20T05:18:35;10.15;;;9.57;;
81378;SDS011;70830;42.290;-71.354;2023-12-20T05:21:01;10.48;;;9.77;;
81378;SDS011;70830;42.290;-71.354;2023-12-20T05:23:27;8.07;;;7.47;;
81378;SDS011;70830;42.290;-71.354;2023-12-20T05:25:53;9.57;;;9.07;;
81378;SDS011;70830;42.290;-71.354;2023-12-20T05:28:19;8.88;;;8.38;;
81378;SDS011;70830;42.290;-71.354;2023-12-20T05:30:45;11.68;;;11.07;;
81378;SDS011;70830;42.290;-71.354;2023-12-20T05:33:11;12.80;;;12.13;;
81378;SDS011;70830;42.290;-71.354;2023-12-20T05:35:38;10.80;;;10.00;;
81378;SDS011;70830;42.290;-71.354;2023-12-20T05:38:04;3.88;;;3.60;;
81378;SDS011;70830;42.290;-71.354;2023-12-20T05:40:30;8.27;;;7.68;;
81378;SDS011;70830;42.290;-71.354;2023-12-20T05:42:56;7.25;;;6.85;;
81378;SDS011;70830;42.290;-71.354;2023-12-20T05:45:21;11.23;;;5.45;;
81378;SDS011;70830;42.290;-71.354;2023-12-20T05:47:47;5.50;;;5.10;;
81378;SDS011;70830;42.290;-71.354;2023-12-20T05:50:13;5.00;;;4.60;;
81378;SDS011;70830;42.290;-71.354;2023-12-20T05:52:39;7.78;;;4.80;;
81378;SDS011;70830;42.290;-71.354;2023-12-20T05:55:06;4.07;;;3.78;;
81378;SDS011;70830;42.290;-71.354;2023-12-20T05:57:32;4.28;;;3.97;;
81378;SDS011;70830;42.290;-71.354;2023-12-20T05:59:58;4.68;;;4.38;;
81378;SDS011;70830;42.290;-71.354;2023-12-20T06:02:24;4.07;;;3.88;;
81378;SDS011;70830;42.290;-71.354;2023-12-20T06:04:50;4.72;;;4.35;;
81378;SDS011;70830;42.290;-71.354;2023-12-20T06:07:16;4.90;;;4.60;;
81378;SDS011;70830;42.290;-71.354;2023-12-20T06:09:42;4.28;;;3.97;;
81378;SDS011;70830;42.290;-71.354;2023-12-20T06:12:08;4.82;;;4.53;;
81378;SDS011;70830;42.290;-71.354;2023-12-20T06:14:34;4.35;;;4.05;;
81378;SDS011;70830;42.290;-71.354;2023-12-20T06:17:00;4.57;;;4.32;;
81378;SDS011;70830;42.290;-71.354;2023-12-20T06:19:27;4.30;;;4.10;;
81378;SDS011;70830;42.290;-71.354;2023-12-20T06:21:53;4.72;;;4.43;;
81378;SDS011;70830;42.290;-71.354;2023-12-20T06:24:19;1.42;;;0.80;;
81378;SDS011;70830;42.290;-71.354;2023-12-20T06:26:45;2.95;;;0.40;;
81378;SDS011;70830;42.290;-71.354;2023-12-20T06:29:11;0.65;;;0.30;;
81378;SDS011;70830;42.290;-71.354;2023-12-20T06:31:37;2.33;;;0.40;;
81378;SDS011;70830;42.290;-71.354;2023-12-20T06:34:03;0.50;;;0.40;;
81378;SDS011;70830;42.290;-71.354;2023-12-20T06:36:29;0.75;;;0.45;;
81378;SDS011;70830;42.290;-71.354;2023-12-20T06:38:55;0.57;;;0.30;;
81378;SDS011;70830;42.290;-71.354;2023-12-20T06:41:21;0.98;;;0.40;;
81378;SDS011;70830;42.290;-71.354;2023-12-20T06:43:49;1.15;;;0.55;;
81378;SDS011;70830;42.290;-71.354;2023-12-20T06:46:15;1.77;;;0.93;;
81378;SDS011;70830;42.290;-71.354;2023-12-20T06:48:41;1.17;;;0.43;;
81378;SDS011;70830;42.290;-71.354;2023-12-20T06:51:10;1.60;;;0.60;;
81378;SDS011;70830;42.290;-71.354;2023-12-20T06:53:38;1.05;;;0.50;;
81378;SDS011;70830;42.290;-71.354;2023-12-20T06:56:04;0.80;;;0.38;;
81378;SDS011;70830;42.290;-71.354;2023-12-20T06:58:30;5.43;;;5.05;;
81378;SDS011;70830;42.290;-71.354;2023-12-20T07:00:56;10.00;;;9.30;;
81378;SDS011;70830;42.290;-71.354;2023-12-20T07:03:22;14.23;;;13.40;;
81378;SDS011;70830;42.290;-71.354;2023-12-20T07:05:47;4.15;;;3.90;;
81378;SDS011;70830;42.290;-71.354;2023-12-20T07:08:13;5.63;;;5.22;;
81378;SDS011;70830;42.290;-71.354;2023-12-20T07:10:41;5.47;;;5.18;;
81378;SDS011;70830;42.290;-71.354;2023-12-20T07:13:06;4.70;;;4.40;;
81378;SDS011;70830;42.290;-71.354;2023-12-20T07:15:33;5.15;;;4.75;;
81378;SDS011;70830;42.290;-71.354;2023-12-20T07:17:59;4.75;;;4.45;;
81378;SDS011;70830;42.290;-71.354;2023-12-20T07:20:25;4.50;;;3.90;;
81378;SDS011;70830;42.290;-71.354;2023-12-20T07:22:51;5.05;;;4.65;;
81378;SDS011;70830;42.290;-71.354;2023-12-20T07:25:17;3.15;;;2.95;;
81378;SDS011;70830;42.290;-71.354;2023-12-20T07:27:43;4.57;;;4.28;;
81378;SDS011;70830;42.290;-71.354;2023-12-20T07:30:09;4.10;;;3.90;;
81378;SDS011;70830;42.290;-71.354;2023-12-20T07:32:36;4.32;;;4.07;;
81378;SDS011;70830;42.290;-71.354;2023-12-20T07:35:02;4.70;;;4.40;;
81378;SDS011;70830;42.290;-71.354;2023-12-20T07:37:28;7.63;;;7.10;;
81378;SDS011;70830;42.290;-71.354;2023-12-20T07:39:54;6.40;;;5.90;;
81378;SDS011;70830;42.290;-71.354;2023-12-20T07:42:20;5.88;;;5.47;;
81378;SDS011;70830;42.290;-71.354;2023-12-20T07:44:47;3.65;;;2.20;;
81378;SDS011;70830;42.290;-71.354;2023-12-20T07:47:13;3.28;;;2.65;;
81378;SDS011;70830;42.290;-71.354;2023-12-20T07:49:42;2.42;;;0.82;;
81378;SDS011;70830;42.290;-71.354;2023-12-20T07:52:08;5.15;;;0.93;;
81378;SDS011;70830;42.290;-71.354;2023-12-20T07:54:34;1.40;;;0.77;;
81378;SDS011;70830;42.290;-71.354;2023-12-20T07:57:00;3.00;;;2.00;;
81378;SDS011;70830;42.290;-71.354;2023-12-20T07:59:26;2.55;;;0.65;;
81378;SDS011;70830;42.290;-71.354;2023-12-20T08:01:52;2.70;;;0.93;;
81378;SDS011;70830;42.290;-71.354;2023-12-20T08:04:17;2.38;;;1.38;;
81378;SDS011;70830;42.290;-71.354;2023-12-20T08:06:43;1.92;;;0.95;;
81378;SDS011;70830;42.290;-71.354;2023-12-20T08:09:09;1.92;;;0.60;;
81378;SDS011;70830;42.290;-71.354;2023-12-20T08:11:35;4.13;;;2.20;;
81378;SDS011;70830;42.290;-71.354;2023-12-20T08:14:01;2.35;;;0.68;;
81378;SDS011;70830;42.290;-71.354;2023-12-20T08:16:27;1.85;;;1.10;;
81378;SDS011;70830;42.290;-71.354;2023-12-20T08:18:53;1.40;;;0.98;;
81378;SDS011;70830;42.290;-71.354;2023-12-20T08:21:19;2.55;;;0.82;;
81378;SDS011;70830;42.290;-71.354;2023-12-20T08:23:47;2.55;;;1.00;;
81378;SDS011;70830;42.290;-71.354;2023-12-20T08:26:13;2.92;;;0.77;;
81378;SDS011;70830;42.290;-71.354;2023-12-20T08:28:39;2.90;;;0.90;;
81378;SDS011;70830;42.290;-71.354;2023-12-20T08:31:05;3.15;;;0.90;;
81378;SDS011;70830;42.290;-71.354;2023-12-20T08:33:31;2.17;;;0.70;;
81378;SDS011;70830;42.290;-71.354;2023-12-20T08:35:57;2.85;;;0.95;;
81378;SDS011;70830;42.290;-71.354;2023-12-20T08:38:23;3.38;;;0.77;;
81378;SDS011;70830;42.290;-71.354;2023-12-20T08:40:49;2.63;;;1.02;;
81378;SDS011;70830;42.290;-71.354;2023-12-20T08:43:15;4.07;;;0.88;;
81378;SDS011;70830;42.290;-71.354;2023-12-20T08:45:40;3.20;;;1.10;;
81378;SDS011;70830;42.290;-71.354;2023-12-20T08:48:06;2.10;;;0.63;;
81378;SDS011;70830;42.290;-71.354;2023-12-20T08:50:32;3.50;;;0.98;;
81378;SDS011;70830;42.290;-71.354;2023-12-20T08:52:59;1.42;;;0.60;;
81378;SDS011;70830;42.290;-71.354;2023-12-20T08:55:24;1.83;;;0.70;;
81378;SDS011;70830;42.290;-71.354;2023-12-20T08:57:52;2.67;;;1.02;;
81378;SDS011;70830;42.290;-71.354;2023-12-20T09:00:17;1.65;;;0.60;;
81378;SDS011;70830;42.290;-71.354;2023-12-20T09:02:46;2.15;;;0.75;;
81378;SDS011;70830;42.290;-71.354;2023-12-20T09:05:11;1.95;;;0.80;;
81378;SDS011;70830;42.290;-71.354;2023-12-20T09:07:37;1.20;;;0.70;;
81378;SDS011;70830;42.290;-71.354;2023-12-20T09:10:03;1.92;;;0.80;;
81378;SDS011;70830;42.290;-71.354;2023-12-20T09:12:29;2.97;;;0.75;;
81378;SDS011;70830;42.290;-71.354;2023-12-20T09:14:55;1.65;;;0.60;;
81378;SDS011;70830;42.290;-71.354;2023-12-20T09:17:21;1.80;;;0.75;;
81378;SDS011;70830;42.290;-71.354;2023-12-20T09:19:48;1.35;;;0.50;;
81378;SDS011;70830;42.290;-71.354;2023-12-20T09:22:14;1.98;;;0.52;;
81378;SDS011;70830;42.290;-71.354;2023-12-20T09:24:40;1.70;;;0.90;;
81378;SDS011;70830;42.290;-71.354;2023-12-20T09:27:06;1.35;;;1.08;;
81378;SDS011;70830;42.290;-71.354;2023-12-20T09:29:32;3.30;;;1.00;;
81378;SDS011;70830;42.290;-71.354;2023-12-20T09:31:58;2.25;;;1.17;;
81378;SDS011;70830;42.290;-71.354;2023-12-20T09:34:24;0.80;;;0.40;;
81378;SDS011;70830;42.290;-71.354;2023-12-20T09:36:51;1.88;;;0.80;;
81378;SDS011;70830;42.290;-71.354;2023-12-20T09:39:18;1.17;;;0.45;;
81378;SDS011;70830;42.290;-71.354;2023-12-20T09:41:45;2.50;;;0.75;;
81378;SDS011;70830;42.290;-71.354;2023-12-20T09:44:22;2.75;;;0.60;;
81378;SDS011;70830;42.290;-71.354;2023-12-20T09:46:49;1.17;;;0.50;;
81378;SDS011;70830;42.290;-71.354;2023-12-20T09:49:19;1.48;;;0.70;;
81378;SDS011;70830;42.290;-71.354;2023-12-20T09:51:46;2.83;;;0.70;;
81378;SDS011;70830;42.290;-71.354;2023-12-20T09:54:16;4.32;;;1.02;;
81378;SDS011;70830;42.290;-71.354;2023-12-20T09:56:46;1.20;;;0.52;;
81378;SDS011;70830;42.290;-71.354;2023-12-20T09:59:13;2.17;;;0.90;;
81378;SDS011;70830;42.290;-71.354;2023-12-20T10:01:39;2.92;;;0.82;;
81378;SDS011;70830;42.290;-71.354;2023-12-20T10:04:06;2.00;;;1.00;;
81378;SDS011;70830;42.290;-71.354;2023-12-20T10:06:43;2.78;;;0.65;;
81378;SDS011;70830;42.290;-71.354;2023-12-20T10:09:10;1.50;;;0.95;;
81378;SDS011;70830;42.290;-71.354;2023-12-20T10:11:37;1.80;;;0.60;;
81378;SDS011;70830;42.290;-71.354;2023-12-20T10:14:04;2.90;;;1.50;;
81378;SDS011;70830;42.290;-71.354;2023-12-20T10:16:31;5.30;;;2.25;;
81378;SDS011;70830;42.290;-71.354;2023-12-20T10:18:58;3.22;;;0.90;;
81378;SDS011;70830;42.290;-71.354;2023-12-20T10:21:25;3.17;;;1.33;;
81378;SDS011;70830;42.290;-71.354;2023-12-20T10:23:54;1.20;;;0.63;;
81378;SDS011;70830;42.290;-71.354;2023-12-20T10:26:24;3.03;;;0.70;;
81378;SDS011;70830;42.290;-71.354;2023-12-20T10:28:55;2.35;;;0.88;;
81378;SDS011;70830;42.290;-71.354;2023-12-20T10:31:31;1.35;;;0.55;;
81378;SDS011;70830;42.290;-71.354;2023-12-20T10:34:00;2.85;;;0.55;;
81378;SDS011;70830;42.290;-71.354;2023-12-20T10:36:30;1.42;;;0.50;;
81378;SDS011;70830;42.290;-71.354;2023-12-20T10:38:59;1.67;;;0.80;;
81378;SDS011;70830;42.290;-71.354;2023-12-20T10:41:30;2.10;;;0.80;;
81378;SDS011;70830;42.290;-71.354;2023-12-20T10:44:01;1.98;;;0.68;;
81378;SDS011;70830;42.290;-71.354;2023-12-20T10:46:28;2.70;;;1.55;;
81378;SDS011;70830;42.290;-71.354;2023-12-20T10:48:56;2.15;;;1.50;;
81378;SDS011;70830;42.290;-71.354;2023-12-20T10:51:22;2.22;;;2.03;;
81378;SDS011;70830;42.290;-71.354;2023-12-20T10:53:52;3.50;;;2.90;;
81378;SDS011;70830;42.290;-71.354;2023-12-20T10:56:19;3.03;;;2.78;;
81378;SDS011;70830;42.290;-71.354;2023-12-20T10:58:46;2.58;;;2.30;;
81378;SDS011;70830;42.290;-71.354;2023-12-20T11:01:14;2.22;;;2.03;;
81378;SDS011;70830;42.290;-71.354;2023-12-20T11:03:52;1.95;;;1.60;;
81378;SDS011;70830;42.290;-71.354;2023-12-20T11:06:24;2.80;;;2.50;;
81378;SDS011;70830;42.290;-71.354;2023-12-20T11:11:56;4.95;;;2.50;;
81378;SDS011;70830;42.290;-71.354;2023-12-20T11:14:26;2.13;;;1.70;;
81378;SDS011;70830;42.290;-71.354;2023-12-20T11:17:13;1.58;;;1.40;;
81378;SDS011;70830;42.290;-71.354;2023-12-20T11:22:26;1.38;;;1.27;;
81378;SDS011;70830;42.290;-71.354;2023-12-20T11:24:58;2.78;;;1.33;;
81378;SDS011;70830;42.290;-71.354;2023-12-20T11:27:28;2.08;;;1.52;;
81378;SDS011;70830;42.290;-71.354;2023-12-20T11:29:56;1.60;;;1.50;;
81378;SDS011;70830;42.290;-71.354;2023-12-20T11:34:58;1.77;;;1.45;;
81378;SDS011;70830;42.290;-71.354;2023-12-20T11:37:29;2.38;;;1.10;;
81378;SDS011;70830;42.290;-71.354;2023-12-20T11:40:05;2.00;;;1.40;;
81378;SDS011;70830;42.290;-71.354;2023-12-20T11:42:50;1.60;;;1.40;;
81378;SDS011;70830;42.290;-71.354;2023-12-20T11:45:21;2.70;;;1.90;;
81378;SDS011;70830;42.290;-71.354;2023-12-20T11:47:50;2.20;;;2.10;;
81378;SDS011;70830;42.290;-71.354;2023-12-20T11:50:18;1.80;;;1.70;;
81378;SDS011;70830;42.290;-71.354;2023-12-20T11:52:45;1.55;;;1.45;;
81378;SDS011;70830;42.290;-71.354;2023-12-20T11:55:11;1.60;;;1.35;;
81378;SDS011;70830;42.290;-71.354;2023-12-20T11:57:37;1.48;;;1.38;;
81378;SDS011;70830;42.290;-71.354;2023-12-20T12:00:04;1.20;;;1.10;;
81378;SDS011;70830;42.290;-71.354;2023-12-20T12:02:31;2.67;;;1.20;;
81378;SDS011;70830;42.290;-71.354;2023-12-20T12:04:58;2.80;;;1.50;;
81378;SDS011;70830;42.290;-71.354;2023-12-20T12:07:25;1.20;;;1.10;;
81378;SDS011;70830;42.290;-71.354;2023-12-20T12:09:51;1.20;;;1.10;;
81378;SDS011;70830;42.290;-71.354;2023-12-20T12:12:17;1.88;;;1.25;;
81378;SDS011;70830;42.290;-71.354;2023-12-20T12:14:44;1.90;;;1.25;;
81378;SDS011;70830;42.290;-71.354;2023-12-20T12:17:11;2.20;;;1.60;;
81378;SDS011;70830;42.290;-71.354;2023-12-20T12:19:41;2.05;;;1.25;;
81378;SDS011;70830;42.290;-71.354;2023-12-20T12:22:08;2.10;;;1.20;;
81378;SDS011;70830;42.290;-71.354;2023-12-20T12:24:42;2.88;;;1.25;;
81378;SDS011;70830;42.290;-71.354;2023-12-20T12:27:09;4.25;;;1.52;;
81378;SDS011;70830;42.290;-71.354;2023-12-20T12:29:36;2.03;;;1.40;;
81378;SDS011;70830;42.290;-71.354;2023-12-20T12:32:06;2.63;;;2.42;;
81378;SDS011;70830;42.290;-71.354;2023-12-20T12:34:33;2.50;;;2.30;;
81378;SDS011;70830;42.290;-71.354;2023-12-20T12:37:00;2.13;;;1.00;;
81378;SDS011;70830;42.290;-71.354;2023-12-20T12:39:26;1.13;;;0.82;;
81378;SDS011;70830;42.290;-71.354;2023-12-20T12:41:53;5.47;;;4.45;;
81378;SDS011;70830;42.290;-71.354;2023-12-20T12:44:19;4.63;;;4.25;;
81378;SDS011;70830;42.290;-71.354;2023-12-20T12:46:46;4.20;;;3.90;;
81378;SDS011;70830;42.290;-71.354;2023-12-20T12:49:15;4.80;;;4.50;;
81378;SDS011;70830;42.290;-71.354;2023-12-20T12:51:42;5.10;;;4.70;;
81378;SDS011;70830;42.290;-71.354;2023-12-20T12:54:08;5.28;;;4.78;;
81378;SDS011;70830;42.290;-71.354;2023-12-20T12:56:35;3.70;;;3.40;;
81378;SDS011;70830;42.290;-71.354;2023-12-20T12:59:01;3.63;;;3.33;;
81378;SDS011;70830;42.290;-71.354;2023-12-20T13:01:28;5.50;;;5.20;;
81378;SDS011;70830;42.290;-71.354;2023-12-20T13:03:54;4.60;;;4.30;;
81378;SDS011;70830;42.290;-71.354;2023-12-20T13:06:20;5.13;;;4.82;;
81378;SDS011;70830;42.290;-71.354;2023-12-20T13:08:46;5.32;;;4.93;;
81378;SDS011;70830;42.290;-71.354;2023-12-20T13:11:11;5.43;;;5.03;;
81378;SDS011;70830;42.290;-71.354;2023-12-20T13:13:38;5.45;;;5.10;;
81378;SDS011;70830;42.290;-71.354;2023-12-20T13:16:04;5.40;;;5.00;;
81378;SDS011;70830;42.290;-71.354;2023-12-20T13:18:30;4.93;;;4.60;;
81378;SDS011;70830;42.290;-71.354;2023-12-20T13:20:56;5.32;;;5.03;;
81378;SDS011;70830;42.290;-71.354;2023-12-20T13:23:22;5.32;;;1.85;;
81378;SDS011;70830;42.290;-71.354;2023-12-20T13:25:47;4.95;;;4.65;;
81378;SDS011;70830;42.290;-71.354;2023-12-20T13:28:13;6.38;;;5.30;;
81378;SDS011;70830;42.290;-71.354;2023-12-20T13:30:39;4.80;;;4.50;;
81378;SDS011;70830;42.290;-71.354;2023-12-20T13:33:06;6.00;;;5.60;;
81378;SDS011;70830;42.290;-71.354;2023-12-20T13:35:32;6.00;;;5.60;;
81378;SDS011;70830;42.290;-71.354;2023-12-20T13:37:59;6.07;;;5.78;;
81378;SDS011;70830;42.290;-71.354;2023-12-20T13:40:25;6.13;;;5.72;;
81378;SDS011;70830;42.290;-71.354;2023-12-20T13:42:52;6.35;;;5.82;;
81378;SDS011;70830;42.290;-71.354;2023-12-20T13:45:18;6.20;;;5.80;;
81378;SDS011;70830;42.290;-71.354;2023-12-20T13:47:44;5.70;;;5.40;;
81378;SDS011;70830;42.290;-71.354;2023-12-20T13:50:10;5.85;;;5.38;;
81378;SDS011;70830;42.290;-71.354;2023-12-20T13:52:36;5.90;;;5.50;;
81378;SDS011;70830;42.290;-71.354;2023-12-20T13:55:02;6.07;;;5.20;;
81378;SDS011;70830;42.290;-71.354;2023-12-20T13:57:28;0.82;;;0.52;;
81378;SDS011;70830;42.290;-71.354;2023-12-20T13:59:56;5.20;;;4.90;;
81378;SDS011;70830;42.290;-71.354;2023-12-20T14:02:23;7.28;;;6.88;;
81378;SDS011;70830;42.290;-71.354;2023-12-20T14:04:49;5.85;;;5.45;;
81378;SDS011;70830;42.290;-71.354;2023-12-20T14:07:15;5.85;;;5.45;;
81378;SDS011;70830;42.290;-71.354;2023-12-20T14:09:41;6.45;;;6.05;;
81378;SDS011;70830;42.290;-71.354;2023-12-20T14:12:13;6.32;;;5.93;;
81378;SDS011;70830;42.290;-71.354;2023-12-20T14:14:40;6.75;;;5.80;;
81378;SDS011;70830;42.290;-71.354;2023-12-20T14:17:06;6.75;;;6.30;;
81378;SDS011;70830;42.290;-71.354;2023-12-20T14:19:32;6.43;;;6.05;;
81378;SDS011;70830;42.290;-71.354;2023-12-20T14:21:58;6.30;;;5.93;;
81378;SDS011;70830;42.290;-71.354;2023-12-20T14:24:27;6.70;;;6.30;;
81378;SDS011;70830;42.290;-71.354;2023-12-20T14:26:53;6.32;;;6.00;;